Ana Sayfa
METAR-TAF:

METAR-TAF

Havaalanları :

St. Clair County International Airport

Port Huron, Michigan, Amerika Birleşik Devletleri

Enlem: 42-55N, Boylam: 082-32W, yükseklik: 198 m

Güncel hava durumu gözlemi

Rapor saat 14:15 UTC de 25 dakika önce yapıldı.
Rüzgar kuzeybatıdan 4 kt
Sıcaklık -1°C
Nem 74%
Basınç 1023 hPa
Görüş mesafesi: 16.1 km
2500 ft yükseklikte çok bulutlu

METAR: KPHN 291415Z AUTO 32004KT 10SM OVC025 M01/M05 A3022 RMK AO2

Saat: 09:40 (14:40 UTC)


TAF: eksik

4.000'den fazla havaalanı için hava durumu gözlemleri ve tahminleri (METAR ve TAF raporları).

Kullanılabilir istasyonlar harita üzerinde sarı ve kırmızı noktalarla gösterilir.

İstasyonun adını görmek için fareyi noktanın üzerinde gezdirin.

Sonrasında hava gözlem ve tahminlerini görmek için tıklayın.

Haritayı değiştirmek için: yaklaştırmak için siyah artı işaretli yeşil düğmeye ve uzaklaştırmak için de eksi işaretli düğmeye hızla tıklayın; bitişik haritalar için yeşil okları kullanın.


METAR-TAF: